sensor_id;sensor_type;location;lat;lon;timestamp;P1;durP1;ratioP1;P2;durP2;ratioP2
46643;SDS011;32371;51.032;5.816;2022-07-23T00:01:04;12.23;;;3.60;;
46643;SDS011;32371;51.032;5.816;2022-07-23T00:03:30;6.88;;;3.00;;
46643;SDS011;32371;51.032;5.816;2022-07-23T00:05:55;5.32;;;3.17;;
46643;SDS011;32371;51.032;5.816;2022-07-23T00:08:21;7.07;;;3.20;;
46643;SDS011;32371;51.032;5.816;2022-07-23T00:10:46;4.53;;;2.55;;
46643;SDS011;32371;51.032;5.816;2022-07-23T00:13:11;7.95;;;3.53;;
46643;SDS011;32371;51.032;5.816;2022-07-23T00:15:37;5.43;;;2.25;;
46643;SDS011;32371;51.032;5.816;2022-07-23T00:18:02;4.70;;;3.20;;
46643;SDS011;32371;51.032;5.816;2022-07-23T00:20:28;5.07;;;2.80;;
46643;SDS011;32371;51.032;5.816;2022-07-23T00:22:54;4.82;;;3.05;;
46643;SDS011;32371;51.032;5.816;2022-07-23T00:25:23;7.57;;;3.10;;
46643;SDS011;32371;51.032;5.816;2022-07-23T00:27:48;5.05;;;3.65;;
46643;SDS011;32371;51.032;5.816;2022-07-23T00:30:14;6.95;;;3.35;;
46643;SDS011;32371;51.032;5.816;2022-07-23T00:32:50;4.10;;;2.85;;
46643;SDS011;32371;51.032;5.816;2022-07-23T00:35:18;4.90;;;3.00;;
46643;SDS011;32371;51.032;5.816;2022-07-23T00:37:45;5.68;;;3.65;;
46643;SDS011;32371;51.032;5.816;2022-07-23T00:40:11;8.45;;;3.25;;
46643;SDS011;32371;51.032;5.816;2022-07-23T00:42:36;4.07;;;3.00;;
46643;SDS011;32371;51.032;5.816;2022-07-23T00:45:03;3.50;;;2.80;;
46643;SDS011;32371;51.032;5.816;2022-07-23T00:47:28;5.22;;;3.30;;
46643;SDS011;32371;51.032;5.816;2022-07-23T00:49:54;4.43;;;3.13;;
46643;SDS011;32371;51.032;5.816;2022-07-23T00:52:19;6.10;;;3.35;;
46643;SDS011;32371;51.032;5.816;2022-07-23T00:54:45;6.13;;;3.40;;
46643;SDS011;32371;51.032;5.816;2022-07-23T00:57:10;3.28;;;2.92;;
46643;SDS011;32371;51.032;5.816;2022-07-23T00:59:37;6.45;;;2.70;;
46643;SDS011;32371;51.032;5.816;2022-07-23T01:02:03;4.85;;;2.35;;
46643;SDS011;32371;51.032;5.816;2022-07-23T01:04:29;4.05;;;2.83;;
46643;SDS011;32371;51.032;5.816;2022-07-23T01:06:54;5.82;;;2.50;;
46643;SDS011;32371;51.032;5.816;2022-07-23T01:09:19;4.43;;;2.88;;
46643;SDS011;32371;51.032;5.816;2022-07-23T01:11:45;3.30;;;2.33;;
46643;SDS011;32371;51.032;5.816;2022-07-23T01:14:15;3.45;;;2.55;;
46643;SDS011;32371;51.032;5.816;2022-07-23T01:16:41;3.83;;;2.88;;
46643;SDS011;32371;51.032;5.816;2022-07-23T01:19:07;6.65;;;2.42;;
46643;SDS011;32371;51.032;5.816;2022-07-23T01:21:37;3.65;;;2.45;;
46643;SDS011;32371;51.032;5.816;2022-07-23T01:24:05;4.00;;;2.65;;
46643;SDS011;32371;51.032;5.816;2022-07-23T01:26:31;6.15;;;4.15;;
46643;SDS011;32371;51.032;5.816;2022-07-23T01:28:56;12.27;;;3.65;;
46643;SDS011;32371;51.032;5.816;2022-07-23T01:31:22;4.32;;;3.22;;
46643;SDS011;32371;51.032;5.816;2022-07-23T01:33:47;4.00;;;3.05;;
46643;SDS011;32371;51.032;5.816;2022-07-23T01:36:13;3.65;;;2.75;;
46643;SDS011;32371;51.032;5.816;2022-07-23T01:38:38;4.22;;;2.90;;
46643;SDS011;32371;51.032;5.816;2022-07-23T01:41:04;5.70;;;3.10;;
46643;SDS011;32371;51.032;5.816;2022-07-23T01:43:29;6.75;;;3.58;;
46643;SDS011;32371;51.032;5.816;2022-07-23T01:45:55;8.68;;;2.92;;
46643;SDS011;32371;51.032;5.816;2022-07-23T01:48:20;8.35;;;3.15;;
46643;SDS011;32371;51.032;5.816;2022-07-23T01:50:46;10.32;;;3.17;;
46643;SDS011;32371;51.032;5.816;2022-07-23T01:53:12;4.43;;;3.13;;
46643;SDS011;32371;51.032;5.816;2022-07-23T01:55:38;3.00;;;2.38;;
46643;SDS011;32371;51.032;5.816;2022-07-23T01:58:04;3.25;;;2.25;;
46643;SDS011;32371;51.032;5.816;2022-07-23T02:00:30;2.25;;;1.85;;
46643;SDS011;32371;51.032;5.816;2022-07-23T02:02:55;3.85;;;2.47;;
46643;SDS011;32371;51.032;5.816;2022-07-23T02:05:23;2.60;;;2.17;;
46643;SDS011;32371;51.032;5.816;2022-07-23T02:07:48;4.22;;;3.00;;
46643;SDS011;32371;51.032;5.816;2022-07-23T02:10:13;4.88;;;3.72;;
46643;SDS011;32371;51.032;5.816;2022-07-23T02:12:39;7.68;;;3.40;;
46643;SDS011;32371;51.032;5.816;2022-07-23T02:15:04;2.95;;;2.28;;
46643;SDS011;32371;51.032;5.816;2022-07-23T02:17:30;7.03;;;2.58;;
46643;SDS011;32371;51.032;5.816;2022-07-23T02:19:56;2.72;;;2.45;;
46643;SDS011;32371;51.032;5.816;2022-07-23T02:22:21;3.05;;;1.95;;
46643;SDS011;32371;51.032;5.816;2022-07-23T02:24:47;1.67;;;1.50;;
46643;SDS011;32371;51.032;5.816;2022-07-23T02:27:12;3.92;;;2.38;;
46643;SDS011;32371;51.032;5.816;2022-07-23T02:29:37;3.67;;;2.45;;
46643;SDS011;32371;51.032;5.816;2022-07-23T02:32:03;4.05;;;2.10;;
46643;SDS011;32371;51.032;5.816;2022-07-23T02:34:28;3.05;;;2.42;;
46643;SDS011;32371;51.032;5.816;2022-07-23T02:36:54;4.20;;;1.98;;
46643;SDS011;32371;51.032;5.816;2022-07-23T02:39:19;4.13;;;2.50;;
46643;SDS011;32371;51.032;5.816;2022-07-23T02:41:44;7.95;;;2.50;;
46643;SDS011;32371;51.032;5.816;2022-07-23T02:44:10;5.38;;;2.95;;
46643;SDS011;32371;51.032;5.816;2022-07-23T02:46:35;5.00;;;2.80;;
46643;SDS011;32371;51.032;5.816;2022-07-23T02:49:00;5.60;;;3.05;;
46643;SDS011;32371;51.032;5.816;2022-07-23T02:51:26;3.80;;;2.95;;
46643;SDS011;32371;51.032;5.816;2022-07-23T02:53:52;3.75;;;2.63;;
46643;SDS011;32371;51.032;5.816;2022-07-23T02:56:17;3.80;;;2.70;;
46643;SDS011;32371;51.032;5.816;2022-07-23T02:58:42;3.00;;;2.67;;
46643;SDS011;32371;51.032;5.816;2022-07-23T03:01:08;3.05;;;2.47;;
46643;SDS011;32371;51.032;5.816;2022-07-23T03:03:33;3.45;;;2.58;;
46643;SDS011;32371;51.032;5.816;2022-07-23T03:05:59;3.55;;;2.30;;
46643;SDS011;32371;51.032;5.816;2022-07-23T03:08:24;4.03;;;2.10;;
46643;SDS011;32371;51.032;5.816;2022-07-23T03:10:49;2.38;;;2.00;;
46643;SDS011;32371;51.032;5.816;2022-07-23T03:13:15;2.40;;;1.60;;
46643;SDS011;32371;51.032;5.816;2022-07-23T03:15:40;3.90;;;1.92;;
46643;SDS011;32371;51.032;5.816;2022-07-23T03:18:06;3.13;;;1.92;;
46643;SDS011;32371;51.032;5.816;2022-07-23T03:20:31;3.35;;;1.60;;
46643;SDS011;32371;51.032;5.816;2022-07-23T03:22:56;3.75;;;2.35;;
46643;SDS011;32371;51.032;5.816;2022-07-23T03:25:22;2.00;;;1.27;;
46643;SDS011;32371;51.032;5.816;2022-07-23T03:27:47;2.17;;;1.95;;
46643;SDS011;32371;51.032;5.816;2022-07-23T03:30:13;4.57;;;1.80;;
46643;SDS011;32371;51.032;5.816;2022-07-23T03:32:38;4.00;;;2.70;;
46643;SDS011;32371;51.032;5.816;2022-07-23T03:35:04;2.72;;;1.50;;
46643;SDS011;32371;51.032;5.816;2022-07-23T03:37:29;4.05;;;1.33;;
46643;SDS011;32371;51.032;5.816;2022-07-23T03:39:55;1.90;;;1.48;;
46643;SDS011;32371;51.032;5.816;2022-07-23T03:42:20;2.10;;;1.70;;
46643;SDS011;32371;51.032;5.816;2022-07-23T03:44:45;2.92;;;2.58;;
46643;SDS011;32371;51.032;5.816;2022-07-23T03:47:11;5.60;;;3.47;;
46643;SDS011;32371;51.032;5.816;2022-07-23T03:49:36;8.57;;;3.58;;
46643;SDS011;32371;51.032;5.816;2022-07-23T03:52:02;5.15;;;2.22;;
46643;SDS011;32371;51.032;5.816;2022-07-23T03:54:27;3.03;;;1.73;;
46643;SDS011;32371;51.032;5.816;2022-07-23T03:56:53;2.53;;;1.90;;
46643;SDS011;32371;51.032;5.816;2022-07-23T03:59:18;5.63;;;2.15;;
46643;SDS011;32371;51.032;5.816;2022-07-23T04:01:43;2.53;;;2.00;;
46643;SDS011;32371;51.032;5.816;2022-07-23T04:04:09;3.58;;;2.15;;
46643;SDS011;32371;51.032;5.816;2022-07-23T04:06:35;2.38;;;1.73;;
46643;SDS011;32371;51.032;5.816;2022-07-23T04:09:01;2.83;;;1.90;;
46643;SDS011;32371;51.032;5.816;2022-07-23T04:11:26;2.60;;;1.60;;
46643;SDS011;32371;51.032;5.816;2022-07-23T04:13:52;3.67;;;2.00;;
46643;SDS011;32371;51.032;5.816;2022-07-23T04:16:17;3.40;;;2.13;;
46643;SDS011;32371;51.032;5.816;2022-07-23T04:18:43;2.42;;;1.70;;
46643;SDS011;32371;51.032;5.816;2022-07-23T04:21:08;1.60;;;0.90;;
46643;SDS011;32371;51.032;5.816;2022-07-23T04:23:33;1.70;;;1.10;;
46643;SDS011;32371;51.032;5.816;2022-07-23T04:25:59;2.17;;;1.40;;
46643;SDS011;32371;51.032;5.816;2022-07-23T04:28:24;0.93;;;0.82;;
46643;SDS011;32371;51.032;5.816;2022-07-23T04:30:50;3.15;;;1.83;;
46643;SDS011;32371;51.032;5.816;2022-07-23T04:33:15;3.45;;;2.47;;
46643;SDS011;32371;51.032;5.816;2022-07-23T04:35:40;3.38;;;2.45;;
46643;SDS011;32371;51.032;5.816;2022-07-23T04:38:06;5.35;;;2.95;;
46643;SDS011;32371;51.032;5.816;2022-07-23T04:40:31;3.63;;;2.60;;
46643;SDS011;32371;51.032;5.816;2022-07-23T04:42:56;4.57;;;3.35;;
46643;SDS011;32371;51.032;5.816;2022-07-23T04:45:22;6.10;;;2.70;;
46643;SDS011;32371;51.032;5.816;2022-07-23T04:47:50;3.03;;;2.28;;
46643;SDS011;32371;51.032;5.816;2022-07-23T04:50:16;4.50;;;2.55;;
46643;SDS011;32371;51.032;5.816;2022-07-23T04:52:46;4.05;;;3.03;;
46643;SDS011;32371;51.032;5.816;2022-07-23T04:55:13;4.03;;;2.78;;
46643;SDS011;32371;51.032;5.816;2022-07-23T04:57:38;5.80;;;2.90;;
46643;SDS011;32371;51.032;5.816;2022-07-23T05:00:03;10.32;;;4.78;;
46643;SDS011;32371;51.032;5.816;2022-07-23T05:02:30;9.23;;;5.28;;
46643;SDS011;32371;51.032;5.816;2022-07-23T05:04:56;7.60;;;5.18;;
46643;SDS011;32371;51.032;5.816;2022-07-23T05:07:21;7.13;;;5.10;;
46643;SDS011;32371;51.032;5.816;2022-07-23T05:09:47;9.40;;;4.85;;
46643;SDS011;32371;51.032;5.816;2022-07-23T05:12:12;14.52;;;5.53;;
46643;SDS011;32371;51.032;5.816;2022-07-23T05:14:38;8.48;;;4.38;;
46643;SDS011;32371;51.032;5.816;2022-07-23T05:17:04;7.57;;;4.50;;
46643;SDS011;32371;51.032;5.816;2022-07-23T05:19:29;11.15;;;4.88;;
46643;SDS011;32371;51.032;5.816;2022-07-23T05:21:54;8.68;;;4.93;;
46643;SDS011;32371;51.032;5.816;2022-07-23T05:24:20;6.47;;;4.80;;
46643;SDS011;32371;51.032;5.816;2022-07-23T05:26:45;9.75;;;5.28;;
46643;SDS011;32371;51.032;5.816;2022-07-23T05:29:10;6.47;;;4.35;;
46643;SDS011;32371;51.032;5.816;2022-07-23T05:31:36;9.77;;;4.63;;
46643;SDS011;32371;51.032;5.816;2022-07-23T05:34:01;5.50;;;4.55;;
46643;SDS011;32371;51.032;5.816;2022-07-23T05:36:27;8.90;;;4.93;;
46643;SDS011;32371;51.032;5.816;2022-07-23T05:38:52;8.98;;;5.25;;
46643;SDS011;32371;51.032;5.816;2022-07-23T05:41:17;7.88;;;4.72;;
46643;SDS011;32371;51.032;5.816;2022-07-23T05:43:43;9.52;;;5.05;;
46643;SDS011;32371;51.032;5.816;2022-07-23T05:46:08;11.25;;;5.15;;
46643;SDS011;32371;51.032;5.816;2022-07-23T05:48:34;6.10;;;4.25;;
46643;SDS011;32371;51.032;5.816;2022-07-23T05:50:59;7.88;;;4.63;;
46643;SDS011;32371;51.032;5.816;2022-07-23T05:53:25;9.52;;;4.57;;
46643;SDS011;32371;51.032;5.816;2022-07-23T05:55:51;9.98;;;5.03;;
46643;SDS011;32371;51.032;5.816;2022-07-23T05:58:16;7.10;;;4.80;;
46643;SDS011;32371;51.032;5.816;2022-07-23T06:00:42;7.95;;;4.75;;
46643;SDS011;32371;51.032;5.816;2022-07-23T06:03:07;14.20;;;4.75;;
46643;SDS011;32371;51.032;5.816;2022-07-23T06:05:32;14.00;;;4.78;;
46643;SDS011;32371;51.032;5.816;2022-07-23T06:07:58;9.13;;;4.75;;
46643;SDS011;32371;51.032;5.816;2022-07-23T06:10:23;9.15;;;4.97;;
46643;SDS011;32371;51.032;5.816;2022-07-23T06:12:49;13.73;;;5.15;;
46643;SDS011;32371;51.032;5.816;2022-07-23T06:15:14;6.88;;;4.43;;
46643;SDS011;32371;51.032;5.816;2022-07-23T06:17:39;9.55;;;4.57;;
46643;SDS011;32371;51.032;5.816;2022-07-23T06:20:06;8.98;;;5.82;;
46643;SDS011;32371;51.032;5.816;2022-07-23T06:22:32;8.55;;;4.75;;
46643;SDS011;32371;51.032;5.816;2022-07-23T06:24:57;8.18;;;4.90;;
46643;SDS011;32371;51.032;5.816;2022-07-23T06:27:23;10.07;;;4.78;;
46643;SDS011;32371;51.032;5.816;2022-07-23T06:29:48;7.38;;;4.28;;
46643;SDS011;32371;51.032;5.816;2022-07-23T06:32:14;8.00;;;4.65;;
46643;SDS011;32371;51.032;5.816;2022-07-23T06:34:39;8.20;;;4.55;;
46643;SDS011;32371;51.032;5.816;2022-07-23T06:37:04;7.07;;;4.85;;
46643;SDS011;32371;51.032;5.816;2022-07-23T06:39:30;9.23;;;4.55;;
46643;SDS011;32371;51.032;5.816;2022-07-23T06:41:55;6.65;;;4.65;;
46643;SDS011;32371;51.032;5.816;2022-07-23T06:44:21;8.07;;;4.72;;
46643;SDS011;32371;51.032;5.816;2022-07-23T06:46:46;8.85;;;4.80;;
46643;SDS011;32371;51.032;5.816;2022-07-23T06:49:11;8.80;;;5.80;;
46643;SDS011;32371;51.032;5.816;2022-07-23T06:51:37;9.63;;;5.30;;
46643;SDS011;32371;51.032;5.816;2022-07-23T06:54:02;9.27;;;6.20;;
46643;SDS011;32371;51.032;5.816;2022-07-23T06:56:28;9.07;;;5.25;;
46643;SDS011;32371;51.032;5.816;2022-07-23T06:58:54;9.32;;;5.15;;
46643;SDS011;32371;51.032;5.816;2022-07-23T07:01:19;7.35;;;4.85;;
46643;SDS011;32371;51.032;5.816;2022-07-23T07:03:45;7.18;;;4.97;;
46643;SDS011;32371;51.032;5.816;2022-07-23T07:06:10;7.63;;;4.93;;
46643;SDS011;32371;51.032;5.816;2022-07-23T07:08:36;8.93;;;5.00;;
46643;SDS011;32371;51.032;5.816;2022-07-23T07:11:01;6.43;;;4.30;;
46643;SDS011;32371;51.032;5.816;2022-07-23T07:13:27;8.30;;;5.45;;
46643;SDS011;32371;51.032;5.816;2022-07-23T07:15:52;12.60;;;5.68;;
46643;SDS011;32371;51.032;5.816;2022-07-23T07:18:17;9.05;;;5.95;;
46643;SDS011;32371;51.032;5.816;2022-07-23T07:20:43;9.20;;;6.03;;
46643;SDS011;32371;51.032;5.816;2022-07-23T07:23:08;12.25;;;6.40;;
46643;SDS011;32371;51.032;5.816;2022-07-23T07:25:34;7.97;;;5.40;;
46643;SDS011;32371;51.032;5.816;2022-07-23T07:27:59;9.98;;;6.25;;
46643;SDS011;32371;51.032;5.816;2022-07-23T07:30:25;9.27;;;5.93;;
46643;SDS011;32371;51.032;5.816;2022-07-23T07:32:50;9.52;;;5.80;;
46643;SDS011;32371;51.032;5.816;2022-07-23T07:35:15;9.02;;;6.18;;
46643;SDS011;32371;51.032;5.816;2022-07-23T07:37:41;15.95;;;7.28;;
46643;SDS011;32371;51.032;5.816;2022-07-23T07:40:06;10.95;;;6.28;;
46643;SDS011;32371;51.032;5.816;2022-07-23T07:42:32;12.85;;;6.95;;
46643;SDS011;32371;51.032;5.816;2022-07-23T07:44:58;13.95;;;6.82;;
46643;SDS011;32371;51.032;5.816;2022-07-23T07:47:23;9.70;;;6.82;;
46643;SDS011;32371;51.032;5.816;2022-07-23T07:49:49;9.75;;;6.38;;
46643;SDS011;32371;51.032;5.816;2022-07-23T07:52:14;10.02;;;6.47;;
46643;SDS011;32371;51.032;5.816;2022-07-23T07:54:39;12.00;;;6.15;;
46643;SDS011;32371;51.032;5.816;2022-07-23T07:57:05;10.35;;;6.85;;
46643;SDS011;32371;51.032;5.816;2022-07-23T07:59:30;11.63;;;5.80;;
46643;SDS011;32371;51.032;5.816;2022-07-23T08:01:55;10.80;;;6.60;;
46643;SDS011;32371;51.032;5.816;2022-07-23T08:04:21;9.85;;;5.80;;
46643;SDS011;32371;51.032;5.816;2022-07-23T08:06:46;7.97;;;5.32;;
46643;SDS011;32371;51.032;5.816;2022-07-23T08:09:12;9.45;;;5.85;;
46643;SDS011;32371;51.032;5.816;2022-07-23T08:11:37;10.18;;;5.45;;
46643;SDS011;32371;51.032;5.816;2022-07-23T08:14:02;14.63;;;5.65;;
46643;SDS011;32371;51.032;5.816;2022-07-23T08:16:28;9.90;;;5.32;;
46643;SDS011;32371;51.032;5.816;2022-07-23T08:18:53;14.65;;;4.65;;
46643;SDS011;32371;51.032;5.816;2022-07-23T08:21:19;8.80;;;4.78;;
46643;SDS011;32371;51.032;5.816;2022-07-23T08:23:44;8.55;;;5.03;;
46643;SDS011;32371;51.032;5.816;2022-07-23T08:26:10;8.35;;;5.20;;
46643;SDS011;32371;51.032;5.816;2022-07-23T08:28:35;9.43;;;5.78;;
46643;SDS011;32371;51.032;5.816;2022-07-23T08:31:01;10.05;;;4.47;;
46643;SDS011;32371;51.032;5.816;2022-07-23T08:33:27;7.93;;;4.65;;
46643;SDS011;32371;51.032;5.816;2022-07-23T08:35:52;12.38;;;4.03;;
46643;SDS011;32371;51.032;5.816;2022-07-23T08:38:19;6.47;;;4.55;;
46643;SDS011;32371;51.032;5.816;2022-07-23T08:40:47;6.70;;;4.05;;
46643;SDS011;32371;51.032;5.816;2022-07-23T08:43:19;6.68;;;4.90;;
46643;SDS011;32371;51.032;5.816;2022-07-23T08:45:49;9.38;;;4.88;;
46643;SDS011;32371;51.032;5.816;2022-07-23T08:48:16;7.75;;;4.53;;
46643;SDS011;32371;51.032;5.816;2022-07-23T08:50:44;7.25;;;3.42;;
46643;SDS011;32371;51.032;5.816;2022-07-23T08:53:11;6.72;;;3.90;;
46643;SDS011;32371;51.032;5.816;2022-07-23T08:55:36;6.25;;;3.83;;
46643;SDS011;32371;51.032;5.816;2022-07-23T08:58:02;5.32;;;3.88;;
46643;SDS011;32371;51.032;5.816;2022-07-23T09:00:27;7.60;;;4.20;;
46643;SDS011;32371;51.032;5.816;2022-07-23T09:02:53;8.45;;;4.07;;
46643;SDS011;32371;51.032;5.816;2022-07-23T09:05:19;7.68;;;3.83;;
46643;SDS011;32371;51.032;5.816;2022-07-23T09:11:09;11.60;;;3.67;;
46643;SDS011;32371;51.032;5.816;2022-07-23T09:13:30;5.38;;;3.45;;
46643;SDS011;32371;51.032;5.816;2022-07-23T09:16:06;7.22;;;4.25;;
46643;SDS011;32371;51.032;5.816;2022-07-23T09:31:43;4.32;;;3.08;;
46643;SDS011;32371;51.032;5.816;2022-07-23T09:34:10;7.25;;;3.13;;
46643;SDS011;32371;51.032;5.816;2022-07-23T09:36:36;4.43;;;3.28;;
46643;SDS011;32371;51.032;5.816;2022-07-23T09:39:02;4.82;;;3.70;;
46643;SDS011;32371;51.032;5.816;2022-07-23T09:41:33;7.93;;;3.45;;
46643;SDS011;32371;51.032;5.816;2022-07-23T09:44:06;6.07;;;4.18;;
46643;SDS011;32371;51.032;5.816;2022-07-23T09:46:43;13.80;;;3.78;;
46643;SDS011;32371;51.032;5.816;2022-07-23T09:49:17;11.02;;;2.95;;
46643;SDS011;32371;51.032;5.816;2022-07-23T09:51:48;9.23;;;4.10;;
46643;SDS011;32371;51.032;5.816;2022-07-23T09:54:21;8.07;;;4.00;;
46643;SDS011;32371;51.032;5.816;2022-07-23T09:57:01;5.88;;;3.60;;
46643;SDS011;32371;51.032;5.816;2022-07-23T09:59:34;5.05;;;3.90;;
46643;SDS011;32371;51.032;5.816;2022-07-23T10:02:01;5.40;;;3.38;;
46643;SDS011;32371;51.032;5.816;2022-07-23T10:04:27;5.00;;;3.90;;
46643;SDS011;32371;51.032;5.816;2022-07-23T10:06:55;6.10;;;3.17;;
46643;SDS011;32371;51.032;5.816;2022-07-23T10:09:24;9.15;;;8.60;;
46643;SDS011;32371;51.032;5.816;2022-07-23T10:11:52;12.23;;;11.35;;
46643;SDS011;32371;51.032;5.816;2022-07-23T10:14:23;5.03;;;3.53;;
46643;SDS011;32371;51.032;5.816;2022-07-23T10:16:49;6.00;;;3.20;;
46643;SDS011;32371;51.032;5.816;2022-07-23T10:19:15;3.47;;;3.17;;
46643;SDS011;32371;51.032;5.816;2022-07-23T10:21:46;4.78;;;3.50;;
46643;SDS011;32371;51.032;5.816;2022-07-23T10:24:20;3.72;;;2.63;;
46643;SDS011;32371;51.032;5.816;2022-07-23T10:27:32;4.35;;;2.80;;
46643;SDS011;32371;51.032;5.816;2022-07-23T10:38:27;3.95;;;2.17;;
46643;SDS011;32371;51.032;5.816;2022-07-23T10:43:28;5.38;;;2.63;;
46643;SDS011;32371;51.032;5.816;2022-07-23T10:45:54;5.28;;;2.20;;
46643;SDS011;32371;51.032;5.816;2022-07-23T10:48:23;4.78;;;2.05;;
46643;SDS011;32371;51.032;5.816;2022-07-23T10:51:10;3.70;;;2.25;;
46643;SDS011;32371;51.032;5.816;2022-07-23T10:56:16;3.35;;;2.40;;
46643;SDS011;32371;51.032;5.816;2022-07-23T10:58:45;3.63;;;2.75;;
46643;SDS011;32371;51.032;5.816;2022-07-23T11:01:31;2.85;;;2.15;;
46643;SDS011;32371;51.032;5.816;2022-07-23T11:04:02;2.50;;;2.40;;
46643;SDS011;32371;51.032;5.816;2022-07-23T11:17:58;2.35;;;1.70;;
46643;SDS011;32371;51.032;5.816;2022-07-23T11:20:22;2.00;;;1.80;;
46643;SDS011;32371;51.032;5.816;2022-07-23T11:22:52;3.53;;;1.80;;
46643;SDS011;32371;51.032;5.816;2022-07-23T11:27:46;1.67;;;1.57;;
46643;SDS011;32371;51.032;5.816;2022-07-23T11:32:53;1.80;;;1.30;;
46643;SDS011;32371;51.032;5.816;2022-07-23T11:35:40;2.90;;;1.55;;
46643;SDS011;32371;51.032;5.816;2022-07-23T11:38:20;3.72;;;1.70;;
46643;SDS011;32371;51.032;5.816;2022-07-23T11:40:51;3.75;;;1.50;;
46643;SDS011;32371;51.032;5.816;2022-07-23T11:43:17;1.73;;;1.42;;
46643;SDS011;32371;51.032;5.816;2022-07-23T11:45:44;4.32;;;1.65;;
46643;SDS011;32371;51.032;5.816;2022-07-23T11:50:53;2.60;;;2.03;;
46643;SDS011;32371;51.032;5.816;2022-07-23T11:53:22;1.42;;;1.33;;
46643;SDS011;32371;51.032;5.816;2022-07-23T11:55:49;1.55;;;1.45;;
46643;SDS011;32371;51.032;5.816;2022-07-23T11:58:14;2.38;;;1.00;;
46643;SDS011;32371;51.032;5.816;2022-07-23T12:00:40;2.03;;;1.45;;
46643;SDS011;32371;51.032;5.816;2022-07-23T12:03:06;1.63;;;1.30;;
46643;SDS011;32371;51.032;5.816;2022-07-23T12:05:33;1.95;;;1.48;;
46643;SDS011;32371;51.032;5.816;2022-07-23T12:08:01;3.60;;;1.60;;
46643;SDS011;32371;51.032;5.816;2022-07-23T12:10:28;2.10;;;1.73;;
46643;SDS011;32371;51.032;5.816;2022-07-23T12:12:56;3.95;;;1.50;;
46643;SDS011;32371;51.032;5.816;2022-07-23T12:15:30;1.52;;;1.40;;
46643;SDS011;32371;51.032;5.816;2022-07-23T12:18:02;2.38;;;1.25;;
46643;SDS011;32371;51.032;5.816;2022-07-23T12:20:29;2.92;;;1.17;;
46643;SDS011;32371;51.032;5.816;2022-07-23T12:22:58;2.78;;;1.00;;
46643;SDS011;32371;51.032;5.816;2022-07-23T12:25:26;4.03;;;1.42;;
46643;SDS011;32371;51.032;5.816;2022-07-23T12:28:03;5.13;;;1.33;;
46643;SDS011;32371;51.032;5.816;2022-07-23T12:30:31;2.65;;;1.70;;
46643;SDS011;32371;51.032;5.816;2022-07-23T12:32:58;1.45;;;1.35;;
46643;SDS011;32371;51.032;5.816;2022-07-23T12:35:29;1.98;;;1.50;;
46643;SDS011;32371;51.032;5.816;2022-07-23T12:37:59;4.30;;;2.50;;
46643;SDS011;32371;51.032;5.816;2022-07-23T12:40:28;1.15;;;1.15;;
46643;SDS011;32371;51.032;5.816;2022-07-23T12:42:59;4.68;;;1.10;;
46643;SDS011;32371;51.032;5.816;2022-07-23T12:45:27;1.48;;;1.27;;
46643;SDS011;32371;51.032;5.816;2022-07-23T12:48:01;2.40;;;1.35;;
46643;SDS011;32371;51.032;5.816;2022-07-23T12:50:42;2.72;;;1.30;;
46643;SDS011;32371;51.032;5.816;2022-07-23T12:53:11;5.15;;;2.33;;
46643;SDS011;32371;51.032;5.816;2022-07-23T12:55:39;5.47;;;1.50;;
46643;SDS011;32371;51.032;5.816;2022-07-23T12:58:15;2.88;;;1.85;;
46643;SDS011;32371;51.032;5.816;2022-07-23T13:00:52;1.90;;;1.30;;
46643;SDS011;32371;51.032;5.816;2022-07-23T13:03:32;1.63;;;1.30;;
46643;SDS011;32371;51.032;5.816;2022-07-23T13:06:01;5.65;;;1.63;;
46643;SDS011;32371;51.032;5.816;2022-07-23T13:08:29;6.03;;;1.30;;
46643;SDS011;32371;51.032;5.816;2022-07-23T13:10:55;2.38;;;1.40;;
46643;SDS011;32371;51.032;5.816;2022-07-23T13:13:23;1.30;;;1.05;;
46643;SDS011;32371;51.032;5.816;2022-07-23T13:15:49;3.22;;;1.38;;
46643;SDS011;32371;51.032;5.816;2022-07-23T13:18:15;2.40;;;1.40;;
46643;SDS011;32371;51.032;5.816;2022-07-23T13:20:42;6.28;;;1.40;;
46643;SDS011;32371;51.032;5.816;2022-07-23T13:23:08;1.20;;;1.10;;
46643;SDS011;32371;51.032;5.816;2022-07-23T13:25:33;0.98;;;0.93;;
46643;SDS011;32371;51.032;5.816;2022-07-23T13:27:59;3.67;;;1.20;;
46643;SDS011;32371;51.032;5.816;2022-07-23T13:30:25;3.88;;;1.27;;
46643;SDS011;32371;51.032;5.816;2022-07-23T13:32:50;2.38;;;1.42;;
46643;SDS011;32371;51.032;5.816;2022-07-23T13:35:16;1.85;;;1.55;;
46643;SDS011;32371;51.032;5.816;2022-07-23T13:37:41;3.35;;;1.45;;
46643;SDS011;32371;51.032;5.816;2022-07-23T13:40:07;1.77;;;1.20;;
46643;SDS011;32371;51.032;5.816;2022-07-23T13:42:33;1.63;;;1.20;;
46643;SDS011;32371;51.032;5.816;2022-07-23T13:44:58;3.55;;;1.50;;
46643;SDS011;32371;51.032;5.816;2022-07-23T13:47:23;3.15;;;1.30;;
46643;SDS011;32371;51.032;5.816;2022-07-23T13:49:49;1.23;;;1.02;;
46643;SDS011;32371;51.032;5.816;2022-07-23T13:52:15;4.97;;;1.58;;
46643;SDS011;32371;51.032;5.816;2022-07-23T13:54:40;4.50;;;1.13;;
46643;SDS011;32371;51.032;5.816;2022-07-23T13:57:05;3.42;;;1.77;;
46643;SDS011;32371;51.032;5.816;2022-07-23T13:59:31;2.15;;;1.30;;
46643;SDS011;32371;51.032;5.816;2022-07-23T14:01:56;1.58;;;1.13;;
46643;SDS011;32371;51.032;5.816;2022-07-23T14:04:22;1.73;;;1.10;;
46643;SDS011;32371;51.032;5.816;2022-07-23T14:06:47;2.08;;;1.02;;
46643;SDS011;32371;51.032;5.816;2022-07-23T14:09:13;1.80;;;1.30;;
46643;SDS011;32371;51.032;5.816;2022-07-23T14:11:38;2.80;;;1.45;;
46643;SDS011;32371;51.032;5.816;2022-07-23T14:14:04;2.88;;;1.13;;
46643;SDS011;32371;51.032;5.816;2022-07-23T14:16:29;1.30;;;1.10;;
46643;SDS011;32371;51.032;5.816;2022-07-23T14:18:55;1.30;;;1.20;;
46643;SDS011;32371;51.032;5.816;2022-07-23T14:21:20;3.85;;;0.88;;
46643;SDS011;32371;51.032;5.816;2022-07-23T14:23:46;3.25;;;1.15;;
46643;SDS011;32371;51.032;5.816;2022-07-23T14:26:11;4.35;;;1.20;;
46643;SDS011;32371;51.032;5.816;2022-07-23T14:28:39;7.40;;;1.20;;
46643;SDS011;32371;51.032;5.816;2022-07-23T14:31:04;2.75;;;1.00;;
46643;SDS011;32371;51.032;5.816;2022-07-23T14:33:30;1.25;;;0.85;;
46643;SDS011;32371;51.032;5.816;2022-07-23T14:35:55;4.10;;;1.13;;
46643;SDS011;32371;51.032;5.816;2022-07-23T14:38:21;3.30;;;1.25;;
46643;SDS011;32371;51.032;5.816;2022-07-23T14:40:46;1.30;;;1.20;;
46643;SDS011;32371;51.032;5.816;2022-07-23T14:43:11;1.70;;;1.33;;
46643;SDS011;32371;51.032;5.816;2022-07-23T14:45:37;2.63;;;1.00;;
46643;SDS011;32371;51.032;5.816;2022-07-23T14:48:02;4.40;;;1.10;;
46643;SDS011;32371;51.032;5.816;2022-07-23T14:50:28;13.18;;;1.73;;
46643;SDS011;32371;51.032;5.816;2022-07-23T14:52:54;4.13;;;1.25;;
46643;SDS011;32371;51.032;5.816;2022-07-23T14:55:19;1.88;;;1.10;;
46643;SDS011;32371;51.032;5.816;2022-07-23T14:57:45;6.18;;;1.48;;
46643;SDS011;32371;51.032;5.816;2022-07-23T15:00:11;15.38;;;2.33;;
46643;SDS011;32371;51.032;5.816;2022-07-23T15:02:37;4.57;;;1.20;;
46643;SDS011;32371;51.032;5.816;2022-07-23T15:05:03;2.80;;;1.60;;
46643;SDS011;32371;51.032;5.816;2022-07-23T15:07:29;2.92;;;1.20;;
46643;SDS011;32371;51.032;5.816;2022-07-23T15:09:55;1.30;;;1.00;;
46643;SDS011;32371;51.032;5.816;2022-07-23T15:12:21;12.32;;;1.55;;
46643;SDS011;32371;51.032;5.816;2022-07-23T15:14:46;1.50;;;1.40;;
46643;SDS011;32371;51.032;5.816;2022-07-23T15:17:12;2.17;;;1.00;;
46643;SDS011;32371;51.032;5.816;2022-07-23T15:19:37;1.50;;;1.40;;
46643;SDS011;32371;51.032;5.816;2022-07-23T15:22:02;2.90;;;1.10;;
46643;SDS011;32371;51.032;5.816;2022-07-23T15:24:29;3.33;;;1.17;;
46643;SDS011;32371;51.032;5.816;2022-07-23T15:26:54;1.85;;;0.95;;
46643;SDS011;32371;51.032;5.816;2022-07-23T15:29:20;1.20;;;1.00;;
46643;SDS011;32371;51.032;5.816;2022-07-23T15:31:45;3.00;;;1.20;;